Time;durP1;ratioP1;P1;durP2;ratioP2;P2;SDS_P1;SDS_P2;PMS_P1;PMS_P2;Temp;Humidity;BMP_temperature;BMP_pressure;BME280_temperature;BME280_humidity;BME280_pressure;Samples;Min_cycle;Max_cycle;Signal;HPM_P1;HPM_P2
2021/11/04 00:01:47;;;;;;;13.40;7.50;;;9.50;90.90;;;;;;4950916;28;20043;-72
2021/11/04 00:04:13;;;;;;;12.63;7.47;;;9.50;90.90;;;;;;4944011;28;20058;-72
2021/11/04 00:06:39;;;;;;;11.80;7.00;;;9.50;90.90;;;;;;4942391;28;20050;-72
2021/11/04 00:09:05;;;;;;;11.63;7.50;;;9.50;90.80;;;;;;4948359;28;20034;-72
2021/11/04 00:11:30;;;;;;;10.35;6.72;;;9.60;90.70;;;;;;4954696;28;20039;-72
2021/11/04 00:13:56;;;;;;;10.82;6.78;;;9.60;90.60;;;;;;4957825;28;20034;-72
2021/11/04 00:16:21;;;;;;;11.88;7.28;;;9.60;90.60;;;;;;4956891;28;20404;-72
2021/11/04 00:18:47;;;;;;;16.33;7.93;;;9.60;90.60;;;;;;4957175;28;20122;-72
2021/11/04 00:21:13;;;;;;;10.95;7.15;;;9.60;90.50;;;;;;4945993;28;20075;-72
2021/11/04 00:23:40;;;;;;;11.65;7.03;;;9.70;90.50;;;;;;4941643;28;20035;-72
2021/11/04 00:26:07;;;;;;;10.30;6.65;;;9.60;90.40;;;;;;4944321;28;20035;-72
2021/11/04 00:28:33;;;;;;;13.07;7.65;;;9.60;90.40;;;;;;4949411;28;20479;-72
2021/11/04 00:30:59;;;;;;;13.35;7.32;;;9.70;90.30;;;;;;4944862;28;20042;-72
2021/11/04 00:33:24;;;;;;;14.95;7.80;;;9.70;90.20;;;;;;4941999;28;20138;-72
2021/11/04 00:35:50;;;;;;;11.90;7.15;;;9.60;90.30;;;;;;4961042;28;20041;-72
2021/11/04 00:38:16;;;;;;;11.82;7.60;;;9.70;90.40;;;;;;4950512;28;20023;-72
2021/11/04 00:40:41;;;;;;;13.23;7.82;;;9.70;90.30;;;;;;4943611;28;20031;-72
2021/11/04 00:43:07;;;;;;;11.40;7.90;;;9.70;90.20;;;;;;4956592;28;20039;-72
2021/11/04 00:45:33;;;;;;;13.57;8.02;;;9.70;90.20;;;;;;4947215;28;20039;-72
2021/11/04 00:47:58;;;;;;;12.40;7.85;;;9.70;90.20;;;;;;4953406;28;20503;-72
2021/11/04 00:50:26;;;;;;;12.23;8.15;;;9.60;90.10;;;;;;4957473;28;20035;-72
2021/11/04 00:52:52;;;;;;;11.48;7.80;;;9.60;90.30;;;;;;4957098;28;20053;-71
2021/11/04 00:55:18;;;;;;;12.27;7.38;;;9.60;90.30;;;;;;4950174;28;20039;-72
2021/11/04 00:57:44;;;;;;;13.13;7.65;;;9.60;90.30;;;;;;4945758;28;20054;-72
2021/11/04 01:00:12;;;;;;;12.55;8.98;;;9.60;90.30;;;;;;4942106;28;20035;-72
2021/11/04 01:02:38;;;;;;;16.52;8.07;;;9.60;90.40;;;;;;4944581;28;20070;-72
2021/11/04 01:05:05;;;;;;;13.35;7.80;;;9.60;90.30;;;;;;4949361;28;20043;-71
2021/11/04 01:07:31;;;;;;;12.63;8.02;;;9.60;90.30;;;;;;4969186;28;20038;-72
2021/11/04 01:09:56;;;;;;;15.05;7.60;;;9.70;90.30;;;;;;4958837;28;20042;-72
2021/11/04 01:12:22;;;;;;;13.23;7.38;;;9.70;90.40;;;;;;4956745;28;20932;-72
2021/11/04 01:14:49;;;;;;;19.83;8.93;;;9.60;90.40;;;;;;4947737;28;20484;-71
2021/11/04 01:17:14;;;;;;;13.32;8.25;;;9.70;90.40;;;;;;4965370;28;20479;-71
2021/11/04 01:19:40;;;;;;;12.80;7.68;;;9.70;90.40;;;;;;4942387;28;20038;-72
2021/11/04 01:22:06;;;;;;;11.70;7.72;;;9.60;90.30;;;;;;4947246;28;20075;-72
2021/11/04 01:24:32;;;;;;;12.20;7.35;;;9.60;90.70;;;;;;4967326;28;20039;-71
2021/11/04 01:26:57;;;;;;;13.75;7.82;;;9.60;90.50;;;;;;4956260;28;20035;-72
2021/11/04 01:29:23;;;;;;;12.55;7.72;;;9.60;90.70;;;;;;4952568;28;20105;-72
2021/11/04 01:31:48;;;;;;;12.73;8.05;;;9.60;90.70;;;;;;4966074;28;20411;-72
2021/11/04 01:34:14;;;;;;;11.52;7.57;;;9.60;90.60;;;;;;4954155;28;20121;-72
2021/11/04 01:36:40;;;;;;;15.68;7.50;;;9.60;90.60;;;;;;4957510;28;20026;-72
2021/11/04 01:39:06;;;;;;;11.45;7.95;;;9.60;90.50;;;;;;4950870;28;20110;-72
2021/11/04 01:41:32;;;;;;;14.07;8.50;;;9.60;90.60;;;;;;4950918;28;20061;-72
2021/11/04 01:43:58;;;;;;;13.27;8.13;;;9.60;90.70;;;;;;4945146;28;20122;-71
2021/11/04 01:46:24;;;;;;;11.95;7.10;;;9.60;90.70;;;;;;4950931;28;20050;-72
2021/11/04 01:48:50;;;;;;;12.95;8.07;;;9.50;90.80;;;;;;4945712;28;20055;-71
2021/11/04 01:51:18;;;;;;;15.65;8.48;;;9.50;90.90;;;;;;4951259;28;20023;-72
2021/11/04 01:53:44;;;;;;;14.32;8.63;;;9.50;90.90;;;;;;4943259;28;20067;-72
2021/11/04 01:56:10;;;;;;;12.15;7.50;;;9.50;91.00;;;;;;4942261;28;20031;-72
2021/11/04 01:58:36;;;;;;;13.82;7.55;;;9.50;91.10;;;;;;4946669;28;20066;-72
2021/11/04 02:01:02;;;;;;;10.63;7.28;;;9.50;91.00;;;;;;4953058;28;20080;-71
2021/11/04 02:03:57;;;;;;;13.45;8.40;;;9.50;90.90;;;;;;4957044;28;20043;-72
2021/11/04 02:06:49;;;;;;;14.02;7.88;;;9.50;91.00;;;;;;4944683;28;20042;-72
2021/11/04 02:09:29;;;;;;;12.82;7.97;;;9.50;91.10;;;;;;4953914;28;20043;-72
2021/11/04 02:12:12;;;;;;;16.88;8.70;;;9.50;91.20;;;;;;4947270;28;20035;-72
2021/11/04 02:14:53;;;;;;;11.27;7.43;;;9.50;91.10;;;;;;4946523;28;20031;-72
2021/11/04 02:17:20;;;;;;;12.57;7.97;;;9.40;91.00;;;;;;4955127;28;20050;-72
2021/11/04 02:19:53;;;;;;;12.90;7.88;;;9.40;91.00;;;;;;4956438;28;20034;-71
2021/11/04 02:22:42;;;;;;;14.20;7.72;;;9.30;91.10;;;;;;4945311;28;20076;-71
2021/11/04 02:25:11;;;;;;;12.40;7.70;;;9.30;91.30;;;;;;4948659;28;20039;-71
2021/11/04 02:27:40;;;;;;;10.38;6.70;;;9.20;91.30;;;;;;4967674;28;20118;-71
2021/11/04 02:30:07;;;;;;;14.82;9.25;;;9.10;91.40;;;;;;4959141;28;20038;-71
2021/11/04 02:32:33;;;;;;;14.88;8.70;;;9.10;91.60;;;;;;4976572;28;20039;-71
2021/11/04 02:34:59;;;;;;;13.48;8.15;;;9.00;91.60;;;;;;4954309;28;20039;-71
2021/11/04 02:37:27;;;;;;;14.15;8.77;;;9.00;91.60;;;;;;4949447;28;20034;-72
2021/11/04 02:39:54;;;;;;;16.90;9.77;;;9.00;91.90;;;;;;4945311;28;20796;-72
2021/11/04 02:42:20;;;;;;;17.10;8.95;;;9.10;91.90;;;;;;4945044;28;20603;-72
2021/11/04 02:44:46;;;;;;;13.65;8.45;;;9.10;91.70;;;;;;4949622;28;20035;-71
2021/11/04 02:47:12;;;;;;;15.00;8.70;;;9.10;91.60;;;;;;4954409;28;20030;-72
2021/11/04 02:49:38;;;;;;;15.32;9.10;;;9.10;91.70;;;;;;4974053;28;20484;-71
2021/11/04 02:52:04;;;;;;;15.93;9.75;;;9.00;91.80;;;;;;4956224;28;20066;-72
2021/11/04 02:54:31;;;;;;;18.20;10.00;;;9.00;91.70;;;;;;4951683;28;20035;-71
2021/11/04 02:56:57;;;;;;;18.75;10.20;;;9.00;91.90;;;;;;4945890;28;20121;-72
2021/11/04 02:59:25;;;;;;;16.13;9.52;;;9.00;91.80;;;;;;4943265;28;20059;-72
2021/11/04 03:01:53;;;;;;;18.42;10.48;;;9.00;91.70;;;;;;4946838;28;20070;-71
2021/11/04 03:04:20;;;;;;;16.90;9.48;;;9.00;91.70;;;;;;4951271;28;20403;-71
2021/11/04 03:06:48;;;;;;;17.95;9.55;;;9.10;91.60;;;;;;4953604;28;20042;-72
2021/11/04 03:09:16;;;;;;;17.63;10.27;;;9.10;91.50;;;;;;4956197;28;20031;-71
2021/11/04 03:11:41;;;;;;;19.17;11.60;;;9.10;91.60;;;;;;4953316;28;20073;-71
2021/11/04 03:14:07;;;;;;;19.35;11.68;;;9.10;91.60;;;;;;4948745;28;20122;-71
2021/11/04 03:16:39;;;;;;;17.17;10.40;;;9.10;91.70;;;;;;4946094;28;20031;-71
2021/11/04 03:19:11;;;;;;;17.48;10.23;;;9.10;91.80;;;;;;4956335;28;20085;-72
2021/11/04 03:21:41;;;;;;;18.05;10.05;;;9.10;91.80;;;;;;4949945;28;20035;-71
2021/11/04 03:24:07;;;;;;;18.35;10.93;;;9.10;91.80;;;;;;4954247;28;20066;-71
2021/11/04 03:26:40;;;;;;;14.90;9.85;;;9.20;91.70;;;;;;4958666;28;20197;-71
2021/11/04 03:29:07;;;;;;;17.63;10.18;;;9.20;91.60;;;;;;4955544;28;20046;-71
2021/11/04 03:31:36;;;;;;;18.20;10.60;;;9.20;91.60;;;;;;4965989;28;20032;-71
2021/11/04 03:34:03;;;;;;;18.75;10.18;;;9.30;91.50;;;;;;4955655;28;20038;-71
2021/11/04 03:36:30;;;;;;;18.75;10.45;;;9.30;91.40;;;;;;4959044;28;20039;-71
2021/11/04 03:38:56;;;;;;;20.63;12.52;;;9.30;91.40;;;;;;4949551;28;20051;-71
2021/11/04 03:41:22;;;;;;;23.70;11.32;;;9.40;91.20;;;;;;4950918;28;20042;-71
2021/11/04 03:43:49;;;;;;;20.23;11.45;;;9.40;91.20;;;;;;4956066;28;20039;-71
2021/11/04 03:46:16;;;;;;;21.17;12.13;;;9.40;91.20;;;;;;4945826;28;20124;-71
2021/11/04 03:48:43;;;;;;;18.95;11.57;;;9.40;91.20;;;;;;4946462;28;20027;-71
2021/11/04 03:51:09;;;;;;;20.95;12.70;;;9.40;91.10;;;;;;4954014;28;20073;-71
2021/11/04 03:53:37;;;;;;;22.05;12.88;;;9.40;91.20;;;;;;4958462;28;20042;-70
2021/11/04 03:56:04;;;;;;;21.65;12.73;;;9.30;91.00;;;;;;4955306;28;20046;-71
2021/11/04 03:58:31;;;;;;;18.88;12.30;;;9.30;91.10;;;;;;4952688;28;20127;-71
2021/11/04 04:00:57;;;;;;;23.60;12.15;;;9.30;91.10;;;;;;4954911;28;20051;-72
2021/11/04 04:03:23;;;;;;;19.98;12.32;;;9.30;91.20;;;;;;4957670;28;20043;-72
2021/11/04 04:06:00;;;;;;;21.08;11.90;;;9.30;91.20;;;;;;4947509;28;20063;-71
2021/11/04 04:08:26;;;;;;;25.40;13.55;;;9.40;91.30;;;;;;4948885;28;20078;-72
2021/11/04 04:10:52;;;;;;;22.48;13.05;;;9.40;91.10;;;;;;4944464;28;20138;-73
2021/11/04 04:13:18;;;;;;;23.83;14.00;;;9.40;91.10;;;;;;4942743;28;20112;-72
2021/11/04 04:15:43;;;;;;;18.75;12.40;;;9.40;91.10;;;;;;4947243;28;20042;-72
2021/11/04 04:18:09;;;;;;;24.45;13.02;;;9.40;91.10;;;;;;4957580;28;20031;-72
2021/11/04 04:20:35;;;;;;;22.92;13.30;;;9.40;91.10;;;;;;4958436;28;20749;-71
2021/11/04 04:23:01;;;;;;;24.83;13.13;;;9.30;91.00;;;;;;4957896;28;20058;-71
2021/11/04 04:25:30;;;;;;;20.40;12.27;;;9.30;91.00;;;;;;4952411;28;20032;-72
2021/11/04 04:27:56;;;;;;;19.55;12.68;;;9.30;91.20;;;;;;4945673;28;20039;-72
2021/11/04 04:30:21;;;;;;;19.65;13.07;;;9.30;91.10;;;;;;4941462;28;20039;-72
2021/11/04 04:32:47;;;;;;;22.98;13.20;;;9.30;91.10;;;;;;4943930;28;20038;-71
2021/11/04 04:35:13;;;;;;;24.42;14.32;;;9.30;91.10;;;;;;4949637;28;20030;-72
2021/11/04 04:37:38;;;;;;;26.00;14.95;;;9.30;91.30;;;;;;4954731;28;20070;-72
2021/11/04 04:40:05;;;;;;;26.73;15.20;;;9.30;91.20;;;;;;4957918;28;20058;-72
2021/11/04 04:42:30;;;;;;;24.20;14.55;;;9.30;91.20;;;;;;4954401;28;20039;-72
2021/11/04 04:44:56;;;;;;;26.92;15.32;;;9.30;91.00;;;;;;4948624;28;20039;-72
2021/11/04 04:47:22;;;;;;;25.80;14.65;;;9.40;91.00;;;;;;4943885;28;20035;-72
2021/11/04 04:49:48;;;;;;;28.55;15.82;;;9.40;90.90;;;;;;4957639;28;20511;-72
2021/11/04 04:52:14;;;;;;;25.10;15.40;;;9.30;90.60;;;;;;4952841;28;20114;-72
2021/11/04 04:54:40;;;;;;;26.42;16.55;;;9.30;90.80;;;;;;4947827;28;20054;-72
2021/11/04 04:57:05;;;;;;;27.77;16.38;;;9.30;90.90;;;;;;4942198;28;20035;-72
2021/11/04 04:59:31;;;;;;;28.00;16.50;;;9.30;90.90;;;;;;4943138;28;20075;-71
2021/11/04 05:01:57;;;;;;;28.05;17.60;;;9.30;90.70;;;;;;4947768;28;20034;-72
2021/11/04 05:04:23;;;;;;;28.67;18.15;;;9.30;90.90;;;;;;4953006;28;20046;-72
2021/11/04 05:06:48;;;;;;;29.52;17.75;;;9.30;90.90;;;;;;4957029;28;20035;-72
2021/11/04 05:09:15;;;;;;;30.50;17.35;;;9.20;90.80;;;;;;4951490;28;20760;-72
2021/11/04 05:11:41;;;;;;;26.88;16.75;;;9.30;90.80;;;;;;4957140;28;21077;-72
2021/11/04 05:14:06;;;;;;;32.45;18.63;;;9.20;90.70;;;;;;4951028;28;20046;-72
2021/11/04 05:16:32;;;;;;;32.30;19.75;;;9.20;90.80;;;;;;4945508;28;20043;-72
2021/11/04 05:18:58;;;;;;;31.42;18.73;;;9.30;90.80;;;;;;4947796;28;20035;-72
2021/11/04 05:21:24;;;;;;;34.55;20.23;;;9.30;90.80;;;;;;4957392;28;20039;-72
2021/11/04 05:23:49;;;;;;;35.20;20.88;;;9.30;91.10;;;;;;4955871;28;20173;-71
2021/11/04 05:26:15;;;;;;;34.15;19.08;;;9.30;90.70;;;;;;4955292;28;20039;-72
2021/11/04 05:28:41;;;;;;;36.97;19.90;;;9.20;90.60;;;;;;4948402;28;20039;-72
2021/11/04 05:31:07;;;;;;;33.33;18.98;;;9.20;90.70;;;;;;4956121;28;20035;-72
2021/11/04 05:33:32;;;;;;;35.80;19.77;;;9.30;90.80;;;;;;4952372;28;20035;-72
2021/11/04 05:35:58;;;;;;;37.38;21.83;;;9.30;90.60;;;;;;4955610;28;20101;-72
2021/11/04 05:38:24;;;;;;;39.25;21.60;;;9.30;90.70;;;;;;4952087;28;20063;-72
2021/11/04 05:40:49;;;;;;;41.00;21.48;;;9.30;90.60;;;;;;4966745;28;20045;-73
2021/11/04 05:43:15;;;;;;;39.15;21.80;;;9.30;90.70;;;;;;4947386;28;20035;-72
2021/11/04 05:45:41;;;;;;;43.75;23.95;;;9.30;90.80;;;;;;4967427;28;20045;-72
2021/11/04 05:48:06;;;;;;;40.03;21.13;;;9.30;90.80;;;;;;4954619;28;20043;-72
2021/11/04 05:50:32;;;;;;;42.90;22.25;;;9.30;90.80;;;;;;4960019;28;20115;-72
2021/11/04 05:53:00;;;;;;;40.13;22.40;;;9.40;90.80;;;;;;4950999;28;20045;-72
2021/11/04 05:55:26;;;;;;;37.90;20.85;;;9.30;90.70;;;;;;4959265;28;20039;-72
2021/11/04 05:57:52;;;;;;;39.33;21.23;;;9.40;90.80;;;;;;4955510;28;20074;-72
2021/11/04 06:00:18;;;;;;;39.90;21.63;;;9.40;90.80;;;;;;4947952;28;20492;-72
2021/11/04 06:02:43;;;;;;;40.50;20.83;;;9.30;90.60;;;;;;4963867;28;20034;-72
2021/11/04 06:05:09;;;;;;;37.83;21.23;;;9.40;90.60;;;;;;4960890;28;20127;-72
2021/11/04 06:07:35;;;;;;;39.50;20.98;;;9.40;90.60;;;;;;4952084;28;20097;-72
2021/11/04 06:10:03;;;;;;;44.33;21.08;;;9.30;90.60;;;;;;4954285;28;20109;-72
2021/11/04 06:12:29;;;;;;;41.30;22.02;;;9.30;90.60;;;;;;4954820;28;20065;-72
2021/11/04 06:14:54;;;;;;;39.67;21.23;;;9.30;90.80;;;;;;4969751;28;20491;-72
2021/11/04 06:17:20;;;;;;;43.67;23.48;;;9.40;90.70;;;;;;4950124;28;20086;-73
2021/11/04 06:19:46;;;;;;;47.72;23.23;;;9.30;90.70;;;;;;4967793;28;20567;-72
2021/11/04 06:22:11;;;;;;;45.05;22.33;;;9.30;90.70;;;;;;4968721;28;20122;-72
2021/11/04 06:24:37;;;;;;;44.20;21.73;;;9.30;90.60;;;;;;4960335;28;20039;-72
2021/11/04 06:27:03;;;;;;;40.83;22.55;;;9.30;90.50;;;;;;4952172;28;20039;-72
2021/11/04 06:29:29;;;;;;;45.42;22.02;;;9.30;90.60;;;;;;4955407;28;20829;-71
2021/11/04 06:31:54;;;;;;;37.92;21.65;;;9.30;90.60;;;;;;4958717;28;20089;-71
2021/11/04 06:34:20;;;;;;;43.67;22.83;;;9.30;90.70;;;;;;4953510;28;20515;-72
2021/11/04 06:36:46;;;;;;;43.17;20.98;;;9.30;90.60;;;;;;4955726;28;20046;-72
2021/11/04 06:39:11;;;;;;;40.38;21.20;;;9.30;90.70;;;;;;4944456;28;20034;-71
2021/11/04 06:41:37;;;;;;;37.53;21.25;;;9.30;90.70;;;;;;4970252;28;20035;-72
2021/11/04 06:44:03;;;;;;;41.75;22.52;;;9.30;90.80;;;;;;4951428;28;20039;-72
2021/11/04 06:46:31;;;;;;;38.58;21.45;;;9.30;90.70;;;;;;4950272;28;20031;-72
2021/11/04 06:49:02;;;;;;;41.40;22.00;;;9.30;90.90;;;;;;4945799;28;20035;-72
2021/11/04 06:51:31;;;;;;;43.28;22.70;;;9.30;90.60;;;;;;4958342;28;20045;-72
2021/11/04 06:54:02;;;;;;;40.17;21.33;;;9.30;90.70;;;;;;4954169;28;20035;-71
2021/11/04 06:56:45;;;;;;;40.35;21.05;;;9.40;90.60;;;;;;4946730;28;20080;-71
2021/11/04 06:59:17;;;;;;;46.22;23.08;;;9.40;90.60;;;;;;4974121;28;20046;-71
2021/11/04 07:01:58;;;;;;;44.45;23.00;;;9.40;90.50;;;;;;4952125;28;20089;-71
2021/11/04 07:04:27;;;;;;;44.65;22.23;;;9.40;90.40;;;;;;4954913;28;20407;-73
2021/11/04 07:07:14;;;;;;;44.50;23.17;;;9.40;90.50;;;;;;4949461;28;20035;-71
2021/11/04 07:09:41;;;;;;;;;;;9.30;90.60;;;;;;4955438;28;20122;-73
2021/11/04 07:12:08;;;;;;;;;;;9.40;90.40;;;;;;4950424;28;20004;-72
2021/11/04 07:14:36;;;;;;;47.85;22.55;;;9.40;90.50;;;;;;4945680;28;19918;-71
2021/11/04 07:17:03;;;;;;;47.38;23.02;;;9.30;90.50;;;;;;4946679;28;20038;-73
2021/11/04 07:19:29;;;;;;;45.78;23.27;;;9.30;90.70;;;;;;4955137;28;20690;-72
2021/11/04 07:22:21;;;;;;;45.42;22.50;;;9.30;90.50;;;;;;4949893;28;20031;-72
2021/11/04 07:25:05;;;;;;;50.08;22.88;;;9.30;90.50;;;;;;4957340;28;20047;-72
2021/11/04 07:27:56;;;;;;;52.50;24.27;;;9.30;90.80;;;;;;4951994;28;20491;-70
2021/11/04 07:30:23;;;;;;;45.67;22.85;;;9.30;90.70;;;;;;4947916;28;20113;-73
2021/11/04 07:32:59;;;;;;;52.42;23.75;;;9.30;90.60;;;;;;4948405;28;20063;-74
2021/11/04 07:35:30;;;;;;;49.55;24.48;;;9.30;90.70;;;;;;4948568;28;20031;-75
2021/11/04 07:37:56;;;;;;;50.40;23.98;;;9.40;90.60;;;;;;4954832;28;20133;-81
2021/11/04 07:40:25;;;;;;;50.05;23.85;;;9.40;90.60;;;;;;4958508;28;20105;-75
2021/11/04 07:42:51;;;;;;;52.65;25.65;;;9.30;90.70;;;;;;4951289;28;20027;-77
2021/11/04 07:45:18;;;;;;;51.95;24.98;;;9.40;90.50;;;;;;4941698;28;20137;-79
2021/11/04 07:47:46;;;;;;;61.90;27.35;;;9.40;90.40;;;;;;4954457;28;20034;-76
2021/11/04 07:50:15;;;;;;;53.53;25.70;;;9.40;90.30;;;;;;4966272;28;20152;-78
2021/11/04 07:52:42;;;;;;;52.00;25.92;;;9.30;90.30;;;;;;4967032;28;20081;-77
2021/11/04 07:55:08;;;;;;;51.97;26.08;;;9.30;90.50;;;;;;4943886;28;20034;-83
2021/11/04 07:57:36;;;;;;;49.28;23.95;;;9.30;90.60;;;;;;4942199;28;20042;-82
2021/11/04 08:00:07;;;;;;;52.33;24.60;;;9.30;90.80;;;;;;4945040;28;20039;-80
2021/11/04 08:02:34;;;;;;;53.10;25.38;;;9.40;91.00;;;;;;4959448;28;20042;-79
2021/11/04 08:05:00;;;;;;;59.22;27.70;;;9.40;90.60;;;;;;4946351;28;20338;-82
2021/11/04 08:07:29;;;;;;;55.63;27.02;;;9.50;90.70;;;;;;4972954;28;20049;-82
2021/11/04 08:09:56;;;;;;;52.08;25.67;;;9.50;90.60;;;;;;4957765;28;20041;-81
2021/11/04 08:12:22;;;;;;;53.92;26.25;;;9.50;90.60;;;;;;4966014;28;20039;-73
2021/11/04 08:14:47;;;;;;;59.85;26.50;;;9.50;90.70;;;;;;4949738;28;20041;-76
2021/11/04 08:17:13;;;;;;;51.30;24.55;;;9.60;90.60;;;;;;4946025;28;20041;-73
2021/11/04 08:19:39;;;;;;;61.55;28.73;;;9.60;90.60;;;;;;4970064;28;20035;-71
2021/11/04 08:22:04;;;;;;;57.03;25.98;;;9.60;90.60;;;;;;4955418;28;20034;-70
2021/11/04 08:24:30;;;;;;;54.75;26.52;;;9.60;90.50;;;;;;4951603;28;20746;-85
2021/11/04 08:26:56;;;;;;;54.88;25.60;;;9.60;90.60;;;;;;4955916;28;20039;-74
2021/11/04 08:29:22;;;;;;;58.10;27.92;;;9.50;90.70;;;;;;4956655;28;20037;-67
2021/11/04 08:31:47;;;;;;;55.95;25.70;;;9.50;91.00;;;;;;4949459;28;20074;-67
2021/11/04 08:34:13;;;;;;;52.80;27.30;;;9.50;91.10;;;;;;4953195;28;20050;-77
2021/11/04 08:36:39;;;;;;;58.30;28.13;;;9.40;91.40;;;;;;4946697;28;20482;-73
2021/11/04 08:39:04;;;;;;;59.13;28.63;;;9.40;91.50;;;;;;4955377;28;20057;-78
2021/11/04 08:41:30;;;;;;;55.95;28.20;;;9.40;91.50;;;;;;4957039;28;20051;-76
2021/11/04 08:43:56;;;;;;;52.95;26.90;;;9.40;91.50;;;;;;4956874;28;20041;-78
2021/11/04 08:46:22;;;;;;;61.78;28.85;;;9.40;91.80;;;;;;4955450;28;20483;-74
2021/11/04 08:48:48;;;;;;;55.10;26.88;;;9.40;92.00;;;;;;4950076;28;20045;-76
2021/11/04 08:51:14;;;;;;;58.45;28.48;;;9.40;92.20;;;;;;4956828;28;20431;-76
2021/11/04 08:53:41;;;;;;;61.67;29.77;;;9.30;92.30;;;;;;4950236;28;20114;-76
2021/11/04 08:56:08;;;;;;;65.75;29.27;;;9.30;92.40;;;;;;4966455;28;20510;-76
2021/11/04 08:58:34;;;;;;;58.20;29.45;;;9.30;92.40;;;;;;4948484;28;20042;-76
2021/11/04 09:01:00;;;;;;;57.97;27.88;;;9.30;92.50;;;;;;4949498;28;20129;-77
2021/11/04 09:03:26;;;;;;;59.10;27.42;;;9.30;92.60;;;;;;4953071;28;20041;-77
2021/11/04 09:05:53;;;;;;;60.83;29.25;;;9.30;92.90;;;;;;4953663;28;20682;-78
2021/11/04 09:08:19;;;;;;;54.88;27.17;;;9.30;92.80;;;;;;4956196;28;20045;-79
2021/11/04 09:10:44;;;;;;;57.33;28.08;;;9.30;92.80;;;;;;4954640;28;20035;-76
2021/11/04 09:13:11;;;;;;;63.70;28.95;;;9.30;92.90;;;;;;4954100;28;20759;-77
2021/11/04 09:15:38;;;;;;;60.92;27.67;;;9.30;93.00;;;;;;4966685;28;20658;-78
2021/11/04 09:18:04;;;;;;;64.45;29.02;;;9.30;92.90;;;;;;4953196;28;20124;-79
2021/11/04 09:20:30;;;;;;;63.95;28.67;;;9.30;93.00;;;;;;4951163;28;20042;-76
2021/11/04 09:22:56;;;;;;;55.08;27.05;;;9.20;93.20;;;;;;4952318;28;20043;-74
2021/11/04 09:25:23;;;;;;;56.70;26.75;;;9.20;93.30;;;;;;4952435;28;20042;-74
2021/11/04 09:27:50;;;;;;;53.13;26.42;;;9.20;93.30;;;;;;4951548;28;20035;-74
2021/11/04 09:30:17;;;;;;;67.78;28.48;;;9.20;93.30;;;;;;4954683;28;20042;-76
2021/11/04 09:32:46;;;;;;;64.55;27.95;;;9.20;93.60;;;;;;4945956;28;20047;-75
2021/11/04 09:35:15;;;;;;;52.45;25.13;;;9.10;93.50;;;;;;4948440;28;20121;-73
2021/11/04 09:37:42;;;;;;;49.45;23.98;;;9.10;93.70;;;;;;4953590;28;20061;-74
2021/11/04 09:40:09;;;;;;;49.97;24.83;;;9.10;93.70;;;;;;4958028;28;20050;-74
2021/11/04 09:42:35;;;;;;;48.30;25.35;;;9.10;93.60;;;;;;4953979;28;20046;-74
2021/11/04 09:45:05;;;;;;;53.67;24.30;;;9.10;93.80;;;;;;4953159;28;20039;-74
2021/11/04 09:47:33;;;;;;;46.72;24.42;;;9.10;93.80;;;;;;4949538;28;20043;-74
2021/11/04 09:50:03;;;;;;;45.03;22.50;;;9.10;93.70;;;;;;4948040;28;20979;-73
2021/11/04 09:52:32;;;;;;;42.88;21.55;;;9.10;93.80;;;;;;4950725;28;20030;-73
2021/11/04 09:54:58;;;;;;;45.40;21.63;;;9.10;93.70;;;;;;4952622;28;20130;-77
2021/11/04 09:57:25;;;;;;;39.65;21.50;;;9.10;93.90;;;;;;4944510;28;20057;-74
2021/11/04 09:59:55;;;;;;;48.40;24.23;;;9.10;93.90;;;;;;4963981;28;20038;-78
2021/11/04 10:02:23;;;;;;;42.55;20.65;;;9.10;93.90;;;;;;4947909;28;20042;-74
2021/11/04 10:04:50;;;;;;;45.13;21.00;;;9.00;93.90;;;;;;4954889;28;20106;-74
2021/11/04 10:07:17;;;;;;;37.83;20.50;;;9.10;94.00;;;;;;4952192;28;20829;-77
2021/11/04 10:10:00;;;;;;;37.33;20.55;;;9.10;94.10;;;;;;4955563;28;20034;-75
2021/11/04 10:12:27;;;;;;;39.70;19.73;;;9.10;93.90;;;;;;4950814;28;20050;-74
2021/11/04 10:14:55;;;;;;;38.03;19.17;;;9.10;94.00;;;;;;4948862;28;20127;-72
2021/11/04 10:17:26;;;;;;;38.53;18.10;;;9.00;94.10;;;;;;4941059;28;20043;-73
2021/11/04 10:19:53;;;;;;;39.78;19.42;;;9.00;94.10;;;;;;4952279;28;20244;-74
2021/11/04 10:22:26;;;;;;;36.95;19.02;;;9.00;94.10;;;;;;4954340;28;20079;-77
2021/11/04 10:24:54;;;;;;;36.25;19.13;;;9.00;94.20;;;;;;4954507;28;20039;-81
2021/11/04 10:27:34;;;;;;;38.72;18.27;;;9.00;94.30;;;;;;4953514;28;20038;-82
2021/11/04 10:30:37;;;;;;;39.40;18.85;;;9.00;94.40;;;;;;4960623;28;20031;-74
2021/11/04 10:33:21;;;;;;;42.55;19.30;;;9.00;94.40;;;;;;4957263;28;20045;-77
2021/11/04 10:36:03;;;;;;;39.25;19.30;;;8.90;94.40;;;;;;4955313;28;20440;-76
2021/11/04 10:38:31;;;;;;;41.25;18.10;;;8.90;94.60;;;;;;4964621;28;20039;-73
2021/11/04 10:40:57;;;;;;;39.20;21.25;;;8.90;94.70;;;;;;4954224;28;20050;-74
2021/11/04 10:43:23;;;;;;;39.50;20.30;;;8.90;94.90;;;;;;4948049;28;20035;-79
2021/11/04 10:45:59;;;;;;;34.00;17.85;;;8.90;94.80;;;;;;4948839;28;20041;-74
2021/11/04 10:48:33;;;;;;;34.10;17.50;;;8.90;94.60;;;;;;4947961;28;20046;-73
2021/11/04 10:50:59;;;;;;;34.53;17.52;;;8.90;94.60;;;;;;4958716;28;20550;-74
2021/11/04 10:53:26;;;;;;;33.10;17.60;;;8.90;94.70;;;;;;4958260;28;20034;-75
2021/11/04 10:55:54;;;;;;;36.30;19.05;;;8.90;94.60;;;;;;4973062;28;20365;-78
2021/11/04 10:58:34;;;;;;;36.97;18.88;;;9.00;94.60;;;;;;4956955;28;20125;-76
2021/11/04 11:01:01;;;;;;;35.20;17.75;;;9.00;94.50;;;;;;4955551;28;20043;-73
2021/11/04 11:03:30;;;;;;;30.95;16.05;;;9.00;94.70;;;;;;4972796;28;20097;-79
2021/11/04 11:05:59;;;;;;;35.47;16.73;;;9.00;94.60;;;;;;4957770;28;20039;-72
2021/11/04 11:08:28;;;;;;;34.58;16.90;;;8.90;94.80;;;;;;4956985;28;20031;-74
2021/11/04 11:10:54;;;;;;;36.08;18.52;;;9.00;94.80;;;;;;4966446;28;20488;-73
2021/11/04 11:13:20;;;;;;;35.38;16.70;;;9.00;94.70;;;;;;4957811;28;20042;-70
2021/11/04 11:15:54;;;;;;;34.63;19.33;;;8.90;94.60;;;;;;4951132;28;20078;-73
2021/11/04 11:18:28;;;;;;;31.50;16.83;;;9.00;94.80;;;;;;4973157;28;20038;-73
2021/11/04 11:20:55;;;;;;;28.48;15.38;;;9.00;94.60;;;;;;4950887;28;20462;-73
2021/11/04 11:23:25;;;;;;;27.10;13.95;;;9.00;94.70;;;;;;4947153;28;20511;-73
2021/11/04 11:25:59;;;;;;;25.38;13.93;;;9.00;94.70;;;;;;4953724;28;20041;-74
2021/11/04 11:28:31;;;;;;;28.38;13.60;;;9.00;94.70;;;;;;4955350;28;20050;-77
2021/11/04 11:31:09;;;;;;;24.45;12.25;;;9.00;94.80;;;;;;4958384;28;20708;-73
2021/11/04 11:33:45;;;;;;;30.00;13.95;;;9.00;94.90;;;;;;4956590;28;20035;-74
2021/11/04 11:36:15;;;;;;;23.85;13.20;;;9.10;94.80;;;;;;4950671;28;20059;-75
2021/11/04 11:38:57;;;;;;;25.20;13.15;;;9.00;94.80;;;;;;4967330;28;20049;-73
2021/11/04 11:41:24;;;;;;;27.52;13.52;;;9.10;94.70;;;;;;4951815;28;20038;-74
2021/11/04 11:43:54;;;;;;;26.35;13.00;;;9.00;94.80;;;;;;4952387;28;20042;-74
2021/11/04 11:46:20;;;;;;;22.80;12.00;;;9.00;94.80;;;;;;4954507;28;20062;-74
2021/11/04 11:49:05;;;;;;;22.27;12.15;;;9.10;94.70;;;;;;4956234;28;20153;-74
2021/11/04 11:51:42;;;;;;;27.13;12.05;;;9.20;94.60;;;;;;4951209;28;20046;-74
2021/11/04 11:54:14;;;;;;;28.75;14.73;;;9.10;94.50;;;;;;4950007;28;20032;-74
2021/11/04 11:57:11;;;;;;;26.42;13.80;;;9.10;94.70;;;;;;4949657;28;20280;-73
2021/11/04 11:59:56;;;;;;;27.85;13.68;;;9.20;94.70;;;;;;4951997;28;20201;-73
2021/11/04 12:02:37;;;;;;;27.05;13.65;;;9.20;94.70;;;;;;4963520;28;20915;-74
2021/11/04 12:05:22;;;;;;;24.90;12.63;;;9.20;94.60;;;;;;4963660;28;20047;-77
2021/11/04 12:08:08;;;;;;;28.13;13.52;;;9.30;94.70;;;;;;4957155;28;20069;-79
2021/11/04 12:10:44;;;;;;;24.17;11.95;;;9.30;94.70;;;;;;4952415;28;20042;-75
2021/11/04 12:13:42;;;;;;;38.92;18.95;;;9.30;94.70;;;;;;4946373;28;20507;-76
2021/11/04 12:16:23;;;;;;;38.38;18.15;;;9.20;94.40;;;;;;4959312;28;20026;-76
2021/11/04 12:19:01;;;;;;;27.90;13.80;;;9.20;94.90;;;;;;4948837;28;20034;-76
2021/11/04 12:21:34;;;;;;;30.10;17.42;;;9.20;94.80;;;;;;4950408;28;20544;-76
2021/11/04 12:24:03;;;;;;;66.57;34.33;;;9.20;95.00;;;;;;4954654;28;20554;-76
2021/11/04 12:26:42;;;;;;;87.85;42.72;;;9.30;95.00;;;;;;4958389;28;20093;-75
2021/11/04 12:29:11;;;;;;;49.65;24.55;;;9.30;94.90;;;;;;4951706;28;20038;-73
2021/11/04 12:31:39;;;;;;;37.85;20.77;;;9.30;94.90;;;;;;4951669;28;20039;-75
2021/11/04 12:34:05;;;;;;;36.90;19.55;;;9.30;95.00;;;;;;4951113;28;20073;-75
2021/11/04 12:36:43;;;;;;;30.98;17.08;;;9.30;95.20;;;;;;4949349;28;20114;-75
2021/11/04 12:39:25;;;;;;;34.35;17.40;;;9.30;95.10;;;;;;4954114;28;20050;-75
2021/11/04 12:41:53;;;;;;;29.38;15.27;;;9.30;95.10;;;;;;4950752;28;20055;-75
2021/11/04 12:44:24;;;;;;;31.10;15.57;;;9.30;94.90;;;;;;4952277;28;20043;-75
2021/11/04 12:46:49;;;;;;;30.23;16.10;;;9.30;95.00;;;;;;4947521;28;20101;-75
2021/11/04 12:49:16;;;;;;;28.33;16.40;;;9.30;95.20;;;;;;4951463;28;20043;-75